createdAt,value
2022-10-06T00:01:45.381Z,60.92
2022-10-06T00:04:13.081Z,49.78
2022-10-06T00:07:06.415Z,46.22
2022-10-06T00:09:59.106Z,52.92
2022-10-06T00:12:26.914Z,44.88
2022-10-06T00:14:54.607Z,45.30
2022-10-06T00:17:22.435Z,44.08
2022-10-06T00:19:49.989Z,44.45
2022-10-06T00:22:17.766Z,55.80
2022-10-06T00:24:45.426Z,41.22
2022-10-06T00:27:13.511Z,44.15
2022-10-06T00:29:42.629Z,40.03
2022-10-06T00:32:10.441Z,46.95
2022-10-06T00:34:38.121Z,39.05
2022-10-06T00:37:05.904Z,42.90
2022-10-06T00:39:34.622Z,41.42
2022-10-06T00:42:02.337Z,37.47
2022-10-06T00:44:29.961Z,38.05
2022-10-06T00:46:57.944Z,39.20
2022-10-06T00:49:38.005Z,41.63
2022-10-06T00:52:12.453Z,42.08
2022-10-06T00:54:42.769Z,47.65
2022-10-06T00:57:11.738Z,38.50
2022-10-06T00:59:40.599Z,41.72
2022-10-06T01:02:27.771Z,43.67
2022-10-06T01:05:00.884Z,39.40
2022-10-06T01:07:31.644Z,40.95
2022-10-06T01:09:59.857Z,39.85
2022-10-06T01:12:30.985Z,39.00
2022-10-06T01:15:03.258Z,42.35
2022-10-06T01:17:37.065Z,41.25
2022-10-06T01:20:30.991Z,42.22
2022-10-06T01:23:05.780Z,42.22
2022-10-06T01:25:35.088Z,40.08
2022-10-06T01:28:08.356Z,38.17
2022-10-06T01:30:42.404Z,38.28
2022-10-06T01:33:10.408Z,37.90
2022-10-06T01:35:38.740Z,36.78
2022-10-06T01:38:07.419Z,39.10
2022-10-06T01:40:36.048Z,37.58
2022-10-06T01:43:03.833Z,38.92
2022-10-06T01:45:31.812Z,36.70
2022-10-06T01:47:59.585Z,43.85
2022-10-06T01:50:28.530Z,41.53
2022-10-06T01:52:57.606Z,40.75
2022-10-06T01:55:26.058Z,37.00
2022-10-06T01:57:54.801Z,46.45
2022-10-06T02:00:47.978Z,36.75
2022-10-06T02:03:15.824Z,42.60
2022-10-06T02:05:43.525Z,37.08
2022-10-06T02:08:13.732Z,37.17
2022-10-06T02:10:43.076Z,35.85
2022-10-06T02:13:18.437Z,40.78
2022-10-06T02:15:46.619Z,34.90
2022-10-06T02:18:14.365Z,36.47
2022-10-06T02:20:42.002Z,36.22
2022-10-06T02:23:09.623Z,34.00
2022-10-06T02:25:37.406Z,35.22
2022-10-06T02:28:06.149Z,33.90
2022-10-06T02:30:38.607Z,31.08
2022-10-06T02:33:06.509Z,34.58
2022-10-06T02:35:34.174Z,30.27
2022-10-06T02:38:02.179Z,35.15
2022-10-06T02:40:30.140Z,34.17
2022-10-06T02:42:58.534Z,29.55
2022-10-06T02:45:28.088Z,34.38
2022-10-06T02:47:55.985Z,33.17
2022-10-06T02:50:23.891Z,32.55
2022-10-06T02:52:51.537Z,32.42
2022-10-06T02:55:19.163Z,33.00
2022-10-06T02:57:46.966Z,29.00
2022-10-06T03:00:15.287Z,29.60
2022-10-06T03:02:43.097Z,32.78
2022-10-06T03:05:36.278Z,29.90
2022-10-06T03:08:04.144Z,33.85
2022-10-06T03:10:31.819Z,32.55
2022-10-06T03:12:59.964Z,32.83
2022-10-06T03:15:29.104Z,30.42
2022-10-06T03:17:57.294Z,29.85
2022-10-06T03:20:25.395Z,30.45
2022-10-06T03:22:54.435Z,29.20
2022-10-06T03:25:22.064Z,31.45
2022-10-06T03:27:51.085Z,29.65
2022-10-06T03:30:18.795Z,32.20
2022-10-06T03:32:46.516Z,33.97
2022-10-06T03:35:15.498Z,33.65
2022-10-06T03:37:43.428Z,29.52
2022-10-06T03:40:11.330Z,31.95
2022-10-06T03:42:39.292Z,30.73
2022-10-06T03:45:07.755Z,28.63
2022-10-06T03:47:35.510Z,24.70
2022-10-06T03:50:04.855Z,28.67
2022-10-06T03:52:32.538Z,24.80
2022-10-06T03:55:00.188Z,30.85
2022-10-06T03:57:27.928Z,27.95
2022-10-06T03:59:59.973Z,24.10
2022-10-06T04:02:28.013Z,23.15
2022-10-06T04:04:56.049Z,37.00
2022-10-06T04:07:25.318Z,26.10
2022-10-06T04:09:53.439Z,24.23
2022-10-06T04:12:21.240Z,25.42
2022-10-06T04:14:48.846Z,23.25
2022-10-06T04:17:16.691Z,26.75
2022-10-06T04:19:44.590Z,31.90
2022-10-06T04:22:12.471Z,24.17
2022-10-06T04:24:40.929Z,25.27
2022-10-06T04:27:33.882Z,24.85
2022-10-06T04:30:08.692Z,21.77
2022-10-06T04:32:37.108Z,27.58
2022-10-06T04:35:05.573Z,31.40
2022-10-06T04:37:33.432Z,25.92
2022-10-06T04:40:01.484Z,27.67
2022-10-06T04:42:34.874Z,29.98
2022-10-06T04:45:06.437Z,29.23
2022-10-06T04:47:34.315Z,25.33
2022-10-06T04:50:06.305Z,26.52
2022-10-06T04:52:34.915Z,27.67
2022-10-06T04:55:03.489Z,26.38
2022-10-06T04:57:32.409Z,26.55
2022-10-06T05:00:19.195Z,25.33
2022-10-06T05:02:48.027Z,28.95
2022-10-06T05:05:17.479Z,25.52
2022-10-06T05:07:46.157Z,28.30
2022-10-06T05:10:14.581Z,27.92
2022-10-06T05:12:43.658Z,28.73
2022-10-06T05:15:11.757Z,25.17
2022-10-06T05:17:39.475Z,27.17
2022-10-06T05:20:08.491Z,25.80
2022-10-06T05:22:36.248Z,30.95
2022-10-06T05:25:04.800Z,25.83
2022-10-06T05:27:32.884Z,27.50
2022-10-06T05:30:00.563Z,30.00
2022-10-06T05:32:31.420Z,30.75
2022-10-06T05:35:02.410Z,29.30
2022-10-06T05:37:30.056Z,26.33
2022-10-06T05:39:58.567Z,27.02
2022-10-06T05:42:29.703Z,30.48
2022-10-06T05:44:58.767Z,28.10
2022-10-06T05:47:26.500Z,32.13
2022-10-06T05:49:54.275Z,28.08
2022-10-06T05:52:22.024Z,26.23
2022-10-06T05:54:50.889Z,35.80
2022-10-06T05:57:19.374Z,28.40
2022-10-06T05:59:47.201Z,27.25
2022-10-06T06:02:15.330Z,28.70
2022-10-06T06:04:44.993Z,32.72
2022-10-06T06:07:12.631Z,26.05
2022-10-06T06:09:43.247Z,35.35
2022-10-06T06:12:11.086Z,31.98
2022-10-06T06:15:09.600Z,29.17
2022-10-06T06:17:45.677Z,34.10
2022-10-06T06:20:13.909Z,23.13
2022-10-06T06:22:41.659Z,28.80
2022-10-06T06:25:09.951Z,23.73
2022-10-06T06:27:39.347Z,31.45
2022-10-06T06:30:08.649Z,27.33
2022-10-06T06:32:37.002Z,26.58
2022-10-06T06:35:30.365Z,32.22
2022-10-06T06:37:59.677Z,26.35
2022-10-06T06:40:29.057Z,35.00
2022-10-06T06:42:57.128Z,34.08
2022-10-06T06:45:43.282Z,33.63
2022-10-06T06:48:24.087Z,34.35
2022-10-06T06:50:58.988Z,30.75
2022-10-06T06:53:29.760Z,34.58
2022-10-06T06:56:01.877Z,38.60
2022-10-06T06:58:33.081Z,36.13
2022-10-06T07:01:14.353Z,39.15
2022-10-06T07:03:57.642Z,31.48
2022-10-06T07:06:30.362Z,34.90
2022-10-06T07:09:00.119Z,28.48
2022-10-06T07:11:34.189Z,33.90
2022-10-06T07:14:09.604Z,32.95
2022-10-06T07:16:55.758Z,29.42
2022-10-06T07:19:42.038Z,35.70
2022-10-06T07:22:29.787Z,34.10
2022-10-06T07:25:07.812Z,29.80
2022-10-06T07:27:45.999Z,33.28
2022-10-06T07:30:19.588Z,31.50
2022-10-06T07:32:54.132Z,38.63
2022-10-06T07:35:26.903Z,28.73
2022-10-06T07:37:55.761Z,32.08
2022-10-06T07:40:25.601Z,34.05
2022-10-06T07:42:53.345Z,25.98
2022-10-06T07:45:38.626Z,25.85
2022-10-06T07:48:21.068Z,23.88
2022-10-06T07:51:00.603Z,26.50
2022-10-06T07:53:37.934Z,26.75
2022-10-06T07:56:21.348Z,33.30
2022-10-06T07:58:52.647Z,34.72
2022-10-06T08:01:21.017Z,27.55
2022-10-06T08:03:50.741Z,27.38
2022-10-06T08:06:19.930Z,25.00
2022-10-06T08:08:52.614Z,25.98
2022-10-06T08:11:21.793Z,24.15
2022-10-06T08:13:52.001Z,28.05
2022-10-06T08:16:22.359Z,28.27
2022-10-06T08:19:17.401Z,26.55
2022-10-06T08:21:45.202Z,31.10
2022-10-06T08:24:12.909Z,28.23
2022-10-06T08:26:40.707Z,33.47
2022-10-06T08:29:08.322Z,29.52
2022-10-06T08:31:37.857Z,53.33
2022-10-06T08:34:12.002Z,34.55
2022-10-06T08:36:48.235Z,27.98
2022-10-06T08:39:31.136Z,29.50
2022-10-06T08:42:01.109Z,25.35
2022-10-06T08:44:48.787Z,39.88
2022-10-06T08:47:23.049Z,28.27
2022-10-06T08:49:55.441Z,25.60
2022-10-06T08:52:50.228Z,24.20
2022-10-06T08:55:37.698Z,34.50
2022-10-06T08:58:30.319Z,27.25
2022-10-06T09:01:08.107Z,36.35
2022-10-06T09:04:03.976Z,27.25
2022-10-06T09:07:00.466Z,53.30
2022-10-06T09:09:54.003Z,59.78
2022-10-06T09:12:42.699Z,33.60
2022-10-06T09:15:28.862Z,30.40
2022-10-06T09:18:23.649Z,34.40
2022-10-06T09:21:04.262Z,37.95
2022-10-06T09:23:49.657Z,32.45
2022-10-06T09:26:22.643Z,25.98
2022-10-06T09:28:52.446Z,29.30
2022-10-06T09:31:25.478Z,28.83
2022-10-06T09:34:04.598Z,26.60
2022-10-06T09:36:33.017Z,39.67
2022-10-06T09:39:00.828Z,35.83
2022-10-06T09:41:37.409Z,35.55
2022-10-06T09:44:18.158Z,29.73
2022-10-06T09:46:47.732Z,31.00
2022-10-06T09:49:17.667Z,29.02
2022-10-06T09:52:02.451Z,29.98
2022-10-06T09:54:31.419Z,29.33
2022-10-06T09:57:07.319Z,31.27
2022-10-06T09:59:41.424Z,31.80
2022-10-06T10:02:37.090Z,28.65
2022-10-06T10:05:18.361Z,24.35
2022-10-06T10:08:10.294Z,24.27
2022-10-06T10:10:38.388Z,24.02
2022-10-06T10:13:18.498Z,29.95
2022-10-06T10:15:56.175Z,33.13
2022-10-06T10:18:26.927Z,24.23
2022-10-06T10:20:59.585Z,24.90
2022-10-06T10:23:31.975Z,26.92
2022-10-06T10:26:13.879Z,37.47
2022-10-06T10:28:42.842Z,32.60
2022-10-06T10:31:25.850Z,25.92
2022-10-06T10:34:23.847Z,28.58
2022-10-06T10:37:25.795Z,21.52
2022-10-06T10:40:02.063Z,27.33
2022-10-06T10:42:32.440Z,22.27
2022-10-06T10:45:03.021Z,24.27
2022-10-06T10:47:38.082Z,28.05
2022-10-06T10:50:05.791Z,23.85
2022-10-06T10:52:41.517Z,21.58
2022-10-06T10:55:30.382Z,26.58
2022-10-06T10:58:35.513Z,25.83
2022-10-06T11:01:35.459Z,19.73
2022-10-06T11:04:03.369Z,21.70
2022-10-06T11:06:40.113Z,23.20
2022-10-06T11:09:14.665Z,27.77
2022-10-06T11:12:06.066Z,21.10
2022-10-06T11:14:48.879Z,20.73
2022-10-06T11:17:44.760Z,24.27
2022-10-06T11:20:39.348Z,40.40
2022-10-06T11:23:33.880Z,22.25
2022-10-06T11:26:36.688Z,22.60
2022-10-06T11:29:39.332Z,21.67
2022-10-06T11:32:35.148Z,19.17
2022-10-06T11:35:07.281Z,23.65
2022-10-06T11:37:55.980Z,26.15
2022-10-06T11:40:37.624Z,24.80
2022-10-06T11:43:21.400Z,32.47
2022-10-06T11:46:01.546Z,19.95
2022-10-06T11:48:32.986Z,36.93
2022-10-06T11:51:29.557Z,23.90
2022-10-06T11:53:57.600Z,31.20
2022-10-06T11:57:02.171Z,30.63
2022-10-06T11:59:57.201Z,25.23
2022-10-06T12:02:30.742Z,26.83
2022-10-06T12:08:41.010Z,28.80
2022-10-06T12:11:44.810Z,30.55
2022-10-06T12:17:32.283Z,33.35
2022-10-06T12:20:00.167Z,28.85
2022-10-06T12:23:20.633Z,26.23
2022-10-06T12:26:28.460Z,21.33
2022-10-06T12:29:39.705Z,24.13
2022-10-06T12:34:54.056Z,22.45
2022-10-06T12:37:34.791Z,19.63
2022-10-06T12:40:43.861Z,21.58
2022-10-06T12:43:23.422Z,17.33
2022-10-06T12:45:57.119Z,21.55
2022-10-06T12:48:46.945Z,24.33
2022-10-06T12:51:41.735Z,20.00
2022-10-06T12:54:20.581Z,22.17
2022-10-06T12:56:59.930Z,22.60
2022-10-06T12:59:52.550Z,20.15
2022-10-06T13:02:23.896Z,17.98
2022-10-06T13:05:11.123Z,21.23
2022-10-06T13:08:00.197Z,18.80
2022-10-06T13:10:32.648Z,20.55
2022-10-06T13:13:01.304Z,18.45
2022-10-06T13:18:15.844Z,20.38
2022-10-06T13:20:57.721Z,17.67
2022-10-06T13:23:34.391Z,22.85
2022-10-06T13:26:05.976Z,18.13
2022-10-06T13:28:36.767Z,20.80
2022-10-06T13:31:31.719Z,23.58
2022-10-06T13:34:14.049Z,36.97
2022-10-06T13:39:41.836Z,37.47
2022-10-06T13:42:14.245Z,33.03
2022-10-06T13:44:45.765Z,18.33
2022-10-06T13:47:25.756Z,19.45
2022-10-06T13:49:57.344Z,20.23
2022-10-06T13:52:41.358Z,18.13
2022-10-06T13:55:22.487Z,21.10
2022-10-06T14:00:56.570Z,18.23
2022-10-06T14:03:30.529Z,24.27
2022-10-06T14:06:11.768Z,25.10
2022-10-06T14:11:10.522Z,20.75
2022-10-06T14:14:01.459Z,22.88
2022-10-06T14:16:32.920Z,15.98
2022-10-06T14:19:39.181Z,26.60
2022-10-06T14:22:32.453Z,13.40
2022-10-06T14:25:25.376Z,16.85
2022-10-06T14:27:53.245Z,12.45
2022-10-06T14:30:20.990Z,14.77
2022-10-06T14:32:50.766Z,20.08
2022-10-06T14:35:44.576Z,22.98
2022-10-06T14:38:13.064Z,17.42
2022-10-06T14:40:42.274Z,17.58
2022-10-06T14:43:13.469Z,17.80
2022-10-06T14:45:43.609Z,16.25
2022-10-06T14:48:17.078Z,18.00
2022-10-06T14:51:10.917Z,24.23
2022-10-06T14:53:39.649Z,20.83
2022-10-06T14:56:11.175Z,14.77
2022-10-06T14:59:06.426Z,26.23
2022-10-06T15:01:36.600Z,16.20
2022-10-06T15:04:12.892Z,20.13
2022-10-06T15:07:02.484Z,13.32
2022-10-06T15:09:31.400Z,14.00
2022-10-06T15:12:00.471Z,16.42
2022-10-06T15:14:32.236Z,19.00
2022-10-06T15:17:00.521Z,13.13
2022-10-06T15:19:28.342Z,16.17
2022-10-06T15:21:56.443Z,13.85
2022-10-06T15:24:24.113Z,21.38
2022-10-06T15:27:10.427Z,21.98
2022-10-06T15:29:39.142Z,11.82
2022-10-06T15:32:07.218Z,16.15
2022-10-06T15:34:37.958Z,22.70
2022-10-06T15:37:06.046Z,15.70
2022-10-06T15:39:36.548Z,19.95
2022-10-06T15:42:04.692Z,20.13
2022-10-06T15:44:34.871Z,12.95
2022-10-06T15:47:05.245Z,15.00
2022-10-06T15:49:38.360Z,27.17
2022-10-06T15:52:07.094Z,17.75
2022-10-06T15:54:37.824Z,13.63
2022-10-06T15:57:08.955Z,35.03
2022-10-06T16:00:01.385Z,13.75
2022-10-06T16:02:37.305Z,17.23
2022-10-06T16:05:05.984Z,12.88
2022-10-06T16:07:34.194Z,22.17
2022-10-06T16:10:02.658Z,14.32
2022-10-06T16:18:25.227Z,17.05
2022-10-06T16:20:54.856Z,12.40
2022-10-06T16:23:23.783Z,15.10
2022-10-06T16:26:16.183Z,19.35
2022-10-06T16:28:44.097Z,13.43
2022-10-06T16:31:13.863Z,12.85
2022-10-06T16:33:43.703Z,16.03
2022-10-06T16:36:13.265Z,16.60
2022-10-06T16:38:41.854Z,16.55
2022-10-06T16:41:10.202Z,20.83
2022-10-06T16:43:43.955Z,22.35
2022-10-06T16:46:17.607Z,20.42
2022-10-06T16:48:47.394Z,15.02
2022-10-06T16:51:18.353Z,15.77
2022-10-06T16:53:47.158Z,13.90
2022-10-06T16:56:20.265Z,15.27
2022-10-06T16:58:50.878Z,18.65
2022-10-06T17:01:18.848Z,18.25
2022-10-06T17:03:46.901Z,17.38
2022-10-06T17:06:17.248Z,31.55
2022-10-06T17:08:45.514Z,13.38
2022-10-06T17:11:18.558Z,14.40
2022-10-06T17:13:49.473Z,13.43
2022-10-06T17:16:20.565Z,13.95
2022-10-06T17:21:43.361Z,10.38
2022-10-06T17:24:06.953Z,16.60
2022-10-06T17:26:39.752Z,18.23
2022-10-06T17:29:13.085Z,16.95
2022-10-06T17:31:43.161Z,25.70
2022-10-06T17:34:18.191Z,23.10
2022-10-06T17:36:51.974Z,38.35
2022-10-06T17:39:25.911Z,27.95
2022-10-06T17:42:19.420Z,30.65
2022-10-06T17:44:48.198Z,21.23
2022-10-06T17:47:15.910Z,18.85
2022-10-06T17:49:45.099Z,16.95
2022-10-06T17:52:12.904Z,22.38
2022-10-06T17:54:43.392Z,19.73
2022-10-06T17:57:11.207Z,19.55
2022-10-06T17:59:39.340Z,18.70
2022-10-06T18:02:12.378Z,20.70
2022-10-06T18:04:42.924Z,24.35
2022-10-06T18:07:10.758Z,21.20
2022-10-06T18:09:40.131Z,19.80
2022-10-06T18:12:11.514Z,31.58
2022-10-06T18:14:39.151Z,17.55
2022-10-06T18:17:07.002Z,24.58
2022-10-06T18:19:38.332Z,21.88
2022-10-06T18:22:13.201Z,23.80
2022-10-06T18:24:41.556Z,24.17
2022-10-06T18:27:09.383Z,22.75
2022-10-06T18:29:40.484Z,29.33
2022-10-06T18:33:16.531Z,21.27
2022-10-06T18:37:44.959Z,20.45
2022-10-06T18:40:14.799Z,46.22
2022-10-06T18:42:42.499Z,35.33
2022-10-06T18:45:31.510Z,22.23
2022-10-06T18:48:20.665Z,22.20
2022-10-06T18:50:59.512Z,21.50
2022-10-06T18:53:27.378Z,28.23
2022-10-06T18:55:55.092Z,35.13
2022-10-06T18:58:22.931Z,34.70
2022-10-06T19:00:50.819Z,33.83
2022-10-06T19:03:18.674Z,30.75
2022-10-06T19:05:53.182Z,28.23
2022-10-06T19:08:21.051Z,31.40
2022-10-06T19:11:07.467Z,36.80
2022-10-06T19:13:35.561Z,34.45
2022-10-06T19:16:06.984Z,34.60
2022-10-06T19:18:40.854Z,29.63
2022-10-06T19:21:10.106Z,43.65
2022-10-06T19:23:47.545Z,32.20
2022-10-06T19:26:15.477Z,29.70
2022-10-06T19:28:43.371Z,27.25
2022-10-06T19:31:13.306Z,35.80
2022-10-06T19:33:41.237Z,42.97
2022-10-06T19:36:09.259Z,33.60
2022-10-06T19:38:38.214Z,40.42
2022-10-06T19:41:25.548Z,33.92
2022-10-06T19:43:53.437Z,35.45
2022-10-06T19:46:21.554Z,29.30
2022-10-06T19:49:05.816Z,26.50
2022-10-06T19:51:34.886Z,33.90
2022-10-06T19:54:04.564Z,34.15
2022-10-06T19:56:33.356Z,32.50
2022-10-06T19:59:26.192Z,33.13
2022-10-06T20:02:01.164Z,26.58
2022-10-06T20:04:29.915Z,32.17
2022-10-06T20:07:05.019Z,31.13
2022-10-06T20:10:37.630Z,26.65
2022-10-06T20:13:22.000Z,24.00
2022-10-06T20:15:55.513Z,22.10
2022-10-06T20:18:25.577Z,20.38
2022-10-06T20:20:58.745Z,30.58
2022-10-06T20:23:34.819Z,27.90
2022-10-06T20:26:15.267Z,24.85
2022-10-06T20:28:55.196Z,29.80
2022-10-06T20:31:32.855Z,30.38
2022-10-06T20:34:04.558Z,26.45
2022-10-06T20:36:34.148Z,25.52
2022-10-06T20:39:20.586Z,30.45
2022-10-06T20:41:48.947Z,27.25
2022-10-06T20:44:23.232Z,31.15
2022-10-06T20:46:54.646Z,43.15
2022-10-06T20:49:28.626Z,34.70
2022-10-06T20:51:56.650Z,34.17
2022-10-06T20:54:35.216Z,34.10
2022-10-06T20:57:05.996Z,41.78
2022-10-06T20:59:36.799Z,37.70
2022-10-06T21:02:07.490Z,34.53
2022-10-06T21:04:35.408Z,42.88
2022-10-06T21:07:06.166Z,49.65
2022-10-06T21:09:34.004Z,42.47
2022-10-06T21:12:04.700Z,50.25
2022-10-06T21:14:34.346Z,58.22
2022-10-06T21:17:02.190Z,47.15
2022-10-06T21:19:30.327Z,49.45
2022-10-06T21:21:58.099Z,48.33
2022-10-06T21:24:25.929Z,52.05
2022-10-06T21:26:53.771Z,49.60
2022-10-06T21:29:21.641Z,50.67
2022-10-06T21:31:49.602Z,51.97
2022-10-06T21:34:17.401Z,52.53
2022-10-06T21:36:45.151Z,45.67
2022-10-06T21:39:13.638Z,53.60
2022-10-06T21:41:41.583Z,52.65
2022-10-06T21:44:10.810Z,53.53
2022-10-06T21:46:40.041Z,48.97
2022-10-06T21:49:19.345Z,47.83
2022-10-06T21:51:50.118Z,53.72
2022-10-06T21:54:19.547Z,53.10
2022-10-06T21:56:47.747Z,52.88
2022-10-06T21:59:16.372Z,52.75
2022-10-06T22:01:45.818Z,47.67
2022-10-06T22:04:17.141Z,48.35
2022-10-06T22:06:50.466Z,49.15
2022-10-06T22:09:21.783Z,49.90
2022-10-06T22:14:19.956Z,54.88
2022-10-06T22:16:48.092Z,51.13
2022-10-06T22:19:18.201Z,54.80
2022-10-06T22:21:48.770Z,61.28
2022-10-06T22:24:21.490Z,55.40
2022-10-06T22:26:52.595Z,64.32
2022-10-06T22:29:21.393Z,58.58
2022-10-06T22:31:49.547Z,56.17
2022-10-06T22:34:20.246Z,68.50
2022-10-06T22:36:48.356Z,67.35
2022-10-06T22:39:17.017Z,61.00
2022-10-06T22:41:45.626Z,59.78
2022-10-06T22:44:13.347Z,61.72
2022-10-06T22:46:41.289Z,73.18
2022-10-06T22:49:09.252Z,66.20
2022-10-06T22:51:40.047Z,56.72
2022-10-06T22:54:08.140Z,56.90
2022-10-06T22:56:36.119Z,64.82
2022-10-06T22:59:04.123Z,57.03
2022-10-06T23:01:34.431Z,54.03
2022-10-06T23:04:02.450Z,61.90
2022-10-06T23:06:31.821Z,85.55
2022-10-06T23:09:00.137Z,112.32
2022-10-06T23:11:28.378Z,77.70
2022-10-06T23:13:56.470Z,67.40
2022-10-06T23:16:27.775Z,70.22
2022-10-06T23:18:55.871Z,64.45
2022-10-06T23:21:27.596Z,60.35
2022-10-06T23:23:59.014Z,58.70
2022-10-06T23:26:26.969Z,68.30
2022-10-06T23:29:00.220Z,61.60
2022-10-06T23:31:29.553Z,58.25
2022-10-06T23:33:58.303Z,62.35
2022-10-06T23:36:26.357Z,65.13
2022-10-06T23:38:54.260Z,64.10
2022-10-06T23:41:22.397Z,61.70
2022-10-06T23:43:50.242Z,55.75
2022-10-06T23:46:18.133Z,70.05
2022-10-06T23:48:45.985Z,61.05
2022-10-06T23:51:15.653Z,61.08
2022-10-06T23:53:44.450Z,61.22
2022-10-06T23:56:16.161Z,65.47
2022-10-06T23:58:44.071Z,64.22
